Time;durP1;ratioP1;P1;durP2;ratioP2;P2;SDS_P1;SDS_P2;PMS_P1;PMS_P2;Temp;Humidity;BMP_temperature;BMP_pressure;BME280_temperature;BME280_humidity;BME280_pressure;Samples;Min_cycle;Max_cycle;Signal;HPM_P1;HPM_P2
2021/08/24 00:00:48;;;;;;;;;;;;;;;15.19;76.20;102702.06;5047925;28;20387;-49
2021/08/24 00:03:14;;;;;;;;;;;;;;;15.14;76.27;102701.47;5090059;28;19947;-47
2021/08/24 00:05:41;;;;;;;;;;;;;;;15.21;76.29;102700.16;5064586;28;19932;-50
2021/08/24 00:08:08;;;;;;;;;;;;;;;15.13;76.45;102692.63;5053688;28;19986;-53
2021/08/24 00:10:36;;;;;;;;;;;;;;;15.14;76.37;102694.34;5066412;28;19924;-52
2021/08/24 00:13:03;;;;;;;;;;;;;;;15.07;76.59;102708.03;5073338;28;19928;-53
2021/08/24 00:15:30;;;;;;;;;;;;;;;15.08;76.43;102709.72;5060003;28;19975;-53
2021/08/24 00:17:56;;;;;;;;;;;;;;;15.05;76.48;102708.09;5034731;28;19932;-55
2021/08/24 00:20:30;;;;;;;;;;;;;;;15.08;76.33;102705.31;5027448;28;19925;-54
2021/08/24 00:22:57;;;;;;;;;;;;;;;14.98;76.54;102709.38;5053264;28;19925;-55
2021/08/24 00:25:24;;;;;;;;;;;;;;;14.93;76.97;102711.41;5042033;28;19924;-53
2021/08/24 00:27:51;;;;;;;;;;;;;;;14.96;76.36;102709.47;5059831;28;19929;-50
2021/08/24 00:30:17;;;;;;;;;;;;;;;14.83;76.99;102706.63;5063783;28;19924;-54
2021/08/24 00:32:44;;;;;;;;;;;;;;;14.83;76.81;102706.63;5053588;28;20356;-50
2021/08/24 00:35:11;;;;;;;;;;;;;;;14.76;76.93;102709.69;5048156;28;19925;-53
2021/08/24 00:37:37;;;;;;;;;;;;;;;14.76;76.93;102704.41;5053034;28;19947;-55
2021/08/24 00:40:04;;;;;;;;;;;;;;;14.79;77.20;102712.16;5062327;28;19925;-51
2021/08/24 00:42:31;;;;;;;;;;;;;;;14.82;76.97;102709.34;5070232;28;19931;-53
2021/08/24 00:44:58;;;;;;;;;;;;;;;14.81;77.09;102708.50;5071543;28;19956;-54
2021/08/24 00:47:26;;;;;;;;;;;;;;;14.76;77.28;102707.03;5059003;28;20350;-53
2021/08/24 00:49:54;;;;;;;;;;;;;;;14.85;76.72;102714.50;5055291;28;19929;-52
2021/08/24 00:52:23;;;;;;;;;;;;;;;14.79;77.16;102704.22;5035419;28;19924;-53
2021/08/24 00:54:50;;;;;;;;;;;;;;;14.80;77.37;102712.09;5058706;28;19951;-53
2021/08/24 00:57:21;;;;;;;;;;;;;;;14.75;77.64;102705.31;5035091;28;19925;-53
2021/08/24 00:59:48;;;;;;;;;;;;;;;14.73;77.29;102701.91;5057726;28;19925;-54
2021/08/24 01:02:15;;;;;;;;;;;;;;;14.66;78.15;102706.69;5068643;28;19978;-51
2021/08/24 01:04:42;;;;;;;;;;;;;;;14.64;78.14;102712.06;5068337;28;19931;-52
2021/08/24 01:07:09;;;;;;;;;;;;;;;14.68;78.08;102710.97;5049121;28;19931;-50
2021/08/24 01:09:42;;;;;;;;;;;;;;;14.67;77.95;102709.25;5054735;28;19924;-51
2021/08/24 01:12:21;;;;;;;;;;;;;;;14.64;78.14;102712.06;5072592;28;19925;-52
2021/08/24 01:15:05;;;;;;;;;;;;;;;14.59;78.23;102719.34;5050119;28;19924;-53
2021/08/24 01:17:36;;;;;;;;;;;;;;;14.55;78.66;102725.75;5072359;28;19948;-51
2021/08/24 01:20:20;;;;;;;;;;;;;;;14.45;79.22;102716.56;5040774;28;19979;-52
2021/08/24 01:23:13;;;;;;;;;;;;;;;14.40;79.55;102715.94;5055233;28;19924;-54
2021/08/24 01:25:55;;;;;;;;;;;;;;;14.29;80.50;102720.00;5046817;28;19950;-50
2021/08/24 01:28:33;;;;;;;;;;;;;;;14.29;80.62;102717.38;5069203;28;20457;-53
2021/08/24 01:31:03;;;;;;;;;;;;;;;14.24;80.93;102719.38;5070126;28;19948;-51
2021/08/24 01:33:32;;;;;;;;;;;;;;;14.23;80.97;102720.31;5068163;28;19932;-53
2021/08/24 01:36:17;;;;;;;;;;;;;;;14.17;81.81;102718.00;5040604;28;20027;-54
2021/08/24 01:38:53;;;;;;;;;;;;;;;14.22;81.27;102718.63;5057922;28;19925;-52
2021/08/24 01:41:48;;;;;;;;;;;;;;;14.21;81.46;102716.91;5054371;28;20339;-49
2021/08/24 01:44:16;;;;;;;;;;;;;;;14.25;81.35;102715.81;5047515;28;19929;-53
2021/08/24 01:46:55;;;;;;;;;;;;;;;14.23;81.77;102720.31;5055039;28;19929;-54
2021/08/24 01:49:23;;;;;;;;;;;;;;;14.28;81.42;102718.28;5051871;28;20387;-52
2021/08/24 01:51:51;;;;;;;;;;;;;;;14.27;81.34;102719.22;5067439;28;19975;-52
2021/08/24 01:54:20;;;;;;;;;;;;;;;14.28;81.55;102713.00;5067571;28;19929;-53
2021/08/24 01:56:46;;;;;;;;;;;;;;;14.27;81.49;102713.06;5067632;28;19925;-56
2021/08/24 01:59:25;;;;;;;;;;;;;;;14.28;81.89;102720.09;5049463;28;19947;-51
2021/08/24 02:02:11;;;;;;;;;;;;;;;14.26;81.66;102722.81;5064316;28;19924;-52
2021/08/24 02:04:48;;;;;;;;;;;;;;;14.25;81.77;102725.50;5055548;28;19925;-54
2021/08/24 02:07:14;;;;;;;;;;;;;;;14.11;82.98;102723.56;5050957;28;20480;-53
2021/08/24 02:09:44;;;;;;;;;;;;;;;14.12;82.86;102720.00;5034313;28;19925;-52
2021/08/24 02:12:10;;;;;;;;;;;;;;;14.07;83.28;102729.97;5051104;28;19956;-53
2021/08/24 02:14:38;;;;;;;;;;;;;;;14.00;83.88;102727.63;5033530;28;19975;-53
2021/08/24 02:17:06;;;;;;;;;;;;;;;14.06;83.74;102731.75;5050832;28;20272;-52
2021/08/24 02:19:35;;;;;;;;;;;;;;;14.05;84.05;102734.47;5035773;28;20303;-52
2021/08/24 02:22:03;;;;;;;;;;;;;;;13.99;84.43;102733.00;5035174;28;19967;-47
2021/08/24 02:24:34;;;;;;;;;;;;;;;13.99;84.36;102735.66;5050322;28;20329;-50
2021/08/24 02:27:02;;;;;;;;;;;;;;;13.93;84.89;102742.06;5049783;28;19925;-46
2021/08/24 02:29:28;;;;;;;;;;;;;;;13.87;85.34;102737.09;5050777;28;19929;-46
2021/08/24 02:32:00;;;;;;;;;;;;;;;13.94;85.07;102737.66;5035024;28;19987;-47
2021/08/24 02:34:31;;;;;;;;;;;;;;;13.87;85.30;102739.75;5035070;28;19925;-47
2021/08/24 02:37:07;;;;;;;;;;;;;;;13.84;85.45;102734.63;5042205;28;19955;-48
2021/08/24 02:39:56;;;;;;;;;;;;;;;13.83;85.33;102733.75;5033759;28;19925;-48
2021/08/24 02:42:29;;;;;;;;;;;;;;;13.88;85.22;102736.19;5045987;28;20009;-50
2021/08/24 02:44:57;;;;;;;;;;;;;;;13.94;85.25;102732.38;5063632;28;19924;-48
2021/08/24 02:47:24;;;;;;;;;;;;;;;13.94;85.63;102737.66;5048008;28;19932;-48
2021/08/24 02:49:52;;;;;;;;;;;;;;;13.96;85.54;102736.66;5053426;28;19959;-47
2021/08/24 02:52:19;;;;;;;;;;;;;;;13.92;85.99;102740.38;5059100;28;19931;-48
2021/08/24 02:54:46;;;;;;;;;;;;;;;13.85;86.20;102739.81;5050364;28;19925;-47
2021/08/24 02:57:13;;;;;;;;;;;;;;;13.77;86.50;102741.13;5044273;28;19929;-48
2021/08/24 02:59:40;;;;;;;;;;;;;;;13.71;87.03;102741.44;5040347;28;20384;-49
2021/08/24 03:02:07;;;;;;;;;;;;;;;13.78;86.40;102745.47;5042652;28;19941;-43
2021/08/24 03:04:34;;;;;;;;;;;;;;;13.76;86.56;102739.44;5044327;28;19932;-46
2021/08/24 03:07:05;;;;;;;;;;;;;;;13.74;86.88;102743.91;5054249;28;19925;-45
2021/08/24 03:09:33;;;;;;;;;;;;;;;13.78;86.72;102732.25;5041942;28;19925;-44
2021/08/24 03:12:15;;;;;;;;;;;;;;;13.75;86.93;102741.19;5053837;28;19925;-46
2021/08/24 03:14:57;;;;;;;;;;;;;;;13.73;87.23;102750.13;5054606;28;20285;-45
2021/08/24 03:17:25;;;;;;;;;;;;;;;13.66;87.72;102745.16;5054778;28;19924;-43
2021/08/24 03:19:52;;;;;;;;;;;;;;;13.67;87.93;102746.00;5054581;28;19925;-46
2021/08/24 03:22:19;;;;;;;;;;;;;;;13.65;87.99;102748.72;5054634;28;19966;-46
2021/08/24 03:24:45;;;;;;;;;;;;;;;13.63;88.11;102747.06;5069304;28;19975;-46
2021/08/24 03:27:12;;;;;;;;;;;;;;;13.58;88.76;102742.03;5053960;28;19970;-47
2021/08/24 03:29:39;;;;;;;;;;;;;;;13.56;88.89;102741.22;5054131;28;19929;-46
2021/08/24 03:32:06;;;;;;;;;;;;;;;13.54;89.23;102740.44;5052990;28;19991;-48
2021/08/24 03:34:33;;;;;;;;;;;;;;;13.60;89.14;102739.28;5069555;28;19971;-49
2021/08/24 03:36:59;;;;;;;;;;;;;;;13.58;89.42;102736.72;5054186;28;20331;-48
2021/08/24 03:39:27;;;;;;;;;;;;;;;13.63;89.31;102734.72;5052894;28;19925;-47
2021/08/24 03:41:54;;;;;;;;;;;;;;;13.64;89.34;102741.72;5054218;28;19929;-48
2021/08/24 03:44:20;;;;;;;;;;;;;;;13.64;89.65;102741.72;5052990;28;19940;-43
2021/08/24 03:46:47;;;;;;;;;;;;;;;13.66;89.71;102739.88;5073858;28;20300;-46
2021/08/24 03:49:14;;;;;;;;;;;;;;;13.63;89.84;102745.31;5073877;28;19933;-45
2021/08/24 03:51:40;;;;;;;;;;;;;;;13.69;90.42;102747.63;5056098;28;19928;-46
2021/08/24 03:54:07;;;;;;;;;;;;;;;13.67;89.75;102746.88;5055898;28;20002;-44
2021/08/24 03:56:34;;;;;;;;;;;;;;;13.72;89.49;102748.44;5056073;28;20022;-45
2021/08/24 03:59:00;;;;;;;;;;;;;;;13.65;90.33;102754.00;5073697;28;19991;-45
2021/08/24 04:01:27;;;;;;;;;;;;;;;13.72;90.42;102751.09;5055751;28;20401;-46
2021/08/24 04:03:54;;;;;;;;;;;;;;;13.63;90.49;102757.66;5073082;28;19925;-47
2021/08/24 04:06:20;;;;;;;;;;;;;;;13.63;90.74;102755.88;5072672;28;19958;-47
2021/08/24 04:08:47;;;;;;;;;;;;;;;13.56;90.95;102746.50;5073343;28;19970;-46
2021/08/24 04:11:14;;;;;;;;;;;;;;;13.57;91.31;102753.50;5073472;28;19998;-49
2021/08/24 04:13:40;;;;;;;;;;;;;;;13.60;91.32;102763.94;5073310;28;19928;-47
2021/08/24 04:16:08;;;;;;;;;;;;;;;13.61;91.41;102756.88;5073286;28;19924;-48
2021/08/24 04:18:35;;;;;;;;;;;;;;;13.59;91.67;102759.56;5055798;28;19925;-43
2021/08/24 04:21:01;;;;;;;;;;;;;;;13.61;91.10;102757.72;5073138;28;19974;-46
2021/08/24 04:23:29;;;;;;;;;;;;;;;13.61;91.30;102763.00;5055625;28;19931;-46
2021/08/24 04:25:56;;;;;;;;;;;;;;;13.58;91.64;102760.53;5038623;28;20444;-45
2021/08/24 04:28:23;;;;;;;;;;;;;;;13.59;91.66;102764.84;5073228;28;20259;-44
2021/08/24 04:30:49;;;;;;;;;;;;;;;13.50;92.04;102762.69;5073074;28;19932;-45
2021/08/24 04:33:21;;;;;;;;;;;;;;;13.50;91.75;102771.44;5073227;28;20466;-44
2021/08/24 04:35:49;;;;;;;;;;;;;;;13.50;91.66;102770.59;5072917;28;20399;-45
2021/08/24 04:38:16;;;;;;;;;;;;;;;13.44;92.50;102771.75;5072998;28;19925;-45
2021/08/24 04:40:42;;;;;;;;;;;;;;;13.42;92.19;102778.88;5055180;28;19931;-46
2021/08/24 04:43:09;;;;;;;;;;;;;;;13.38;92.66;102779.09;5073043;28;20334;-46
2021/08/24 04:45:36;;;;;;;;;;;;;;;13.42;92.31;102775.41;5072219;28;19970;-48
2021/08/24 04:48:03;;;;;;;;;;;;;;;13.36;92.61;102779.16;5072349;28;20635;-46
2021/08/24 04:50:29;;;;;;;;;;;;;;;13.41;92.28;102785.09;5055154;28;19931;-46
2021/08/24 04:52:56;;;;;;;;;;;;;;;13.43;92.37;102782.38;5073084;28;20023;-47
2021/08/24 04:55:23;;;;;;;;;;;;;;;13.41;92.38;102779.81;5072806;28;19931;-46
2021/08/24 04:57:49;;;;;;;;;;;;;;;13.42;92.39;102785.97;5072557;28;19932;-47
2021/08/24 05:00:17;;;;;;;;;;;;;;;13.46;92.48;102779.59;5072868;28;19967;-48
2021/08/24 05:02:44;;;;;;;;;;;;;;;13.50;92.08;102787.31;5054855;28;19947;-46
2021/08/24 05:05:11;;;;;;;;;;;;;;;13.41;93.04;102790.38;5054976;28;20399;-44
2021/08/24 05:07:37;;;;;;;;;;;;;;;13.43;92.99;102787.66;5072968;28;19975;-49
2021/08/24 05:10:06;;;;;;;;;;;;;;;13.42;93.20;102784.16;5072787;28;20387;-48
2021/08/24 05:12:33;;;;;;;;;;;;;;;13.43;93.24;102782.38;5055095;28;19924;-44
2021/08/24 05:15:00;;;;;;;;;;;;;;;13.47;93.27;102789.22;5054878;28;19931;-44
2021/08/24 05:17:26;;;;;;;;;;;;;;;13.57;92.91;102795.81;5072579;28;20013;-44
2021/08/24 05:19:53;;;;;;;;;;;;;;;13.53;93.10;102796.88;5072772;28;19929;-48
2021/08/24 05:22:20;;;;;;;;;;;;;;;13.55;93.09;102794.16;5072611;28;19978;-48
2021/08/24 05:24:46;;;;;;;;;;;;;;;13.56;92.89;102802.03;5072264;28;19924;-46
2021/08/24 05:27:13;;;;;;;;;;;;;;;13.51;93.46;102794.31;5054521;28;19924;-46
2021/08/24 05:29:39;;;;;;;;;;;;;;;13.59;93.19;102795.72;5072704;28;19942;-47
2021/08/24 05:32:07;;;;;;;;;;;;;;;13.59;93.20;102801.88;5072262;28;20387;-46
2021/08/24 05:34:33;;;;;;;;;;;;;;;13.64;92.99;102799.03;5072528;28;19924;-52
2021/08/24 05:37:00;;;;;;;;;;;;;;;13.62;93.51;102795.59;5075795;28;19956;-50
2021/08/24 05:39:27;;;;;;;;;;;;;;;13.67;93.09;102804.16;5076529;28;19978;-53
2021/08/24 05:41:53;;;;;;;;;;;;;;;13.71;93.42;102813.66;5076217;28;19924;-49
2021/08/24 05:44:20;;;;;;;;;;;;;;;13.72;93.50;102810.09;5075743;28;19924;-50
2021/08/24 05:46:46;;;;;;;;;;;;;;;13.75;93.52;102806.44;5058197;28;19925;-51
2021/08/24 05:49:13;;;;;;;;;;;;;;;13.77;93.49;102794.00;5076075;28;19954;-51
2021/08/24 05:51:40;;;;;;;;;;;;;;;13.79;93.86;102798.28;5075958;28;19947;-53
2021/08/24 05:54:06;;;;;;;;;;;;;;;13.88;93.64;102801.41;5058019;28;19956;-48
2021/08/24 05:56:33;;;;;;;;;;;;;;;13.93;93.81;102807.34;5076125;28;19924;-50
2021/08/24 05:59:00;;;;;;;;;;;;;;;13.98;93.36;102798.25;5075873;28;19928;-51
2021/08/24 06:01:28;;;;;;;;;;;;;;;14.04;93.32;102802.38;5041599;28;20383;-53
2021/08/24 06:03:55;;;;;;;;;;;;;;;14.09;93.11;102804.81;5075640;28;20398;-43
2021/08/24 06:06:24;;;;;;;;;;;;;;;14.17;93.33;102802.66;5075699;28;20022;-43
2021/08/24 06:08:50;;;;;;;;;;;;;;;14.22;93.36;102800.66;5075291;28;20379;-47
2021/08/24 06:11:18;;;;;;;;;;;;;;;14.29;93.06;102806.47;5057383;28;19924;-44
2021/08/24 06:13:45;;;;;;;;;;;;;;;14.39;92.82;102809.53;5075331;28;19932;-47
2021/08/24 06:16:15;;;;;;;;;;;;;;;14.46;92.71;102813.56;5075616;28;19928;-45
2021/08/24 06:18:42;;;;;;;;;;;;;;;14.57;92.29;102815.69;5075521;28;19928;-45
2021/08/24 06:21:09;;;;;;;;;;;;;;;14.61;92.62;102812.78;5075621;28;20377;-47
2021/08/24 06:23:35;;;;;;;;;;;;;;;14.68;92.01;102816.88;5075672;28;20379;-48
2021/08/24 06:26:02;;;;;;;;;;;;;;;14.82;91.84;102820.59;5075179;28;19978;-46
2021/08/24 06:28:29;;;;;;;;;;;;;;;14.89;92.07;102816.72;5057693;28;19925;-47
2021/08/24 06:30:55;;;;;;;;;;;;;;;14.93;91.35;102823.56;5075251;28;20342;-51
2021/08/24 06:33:24;;;;;;;;;;;;;;;15.01;91.02;102818.72;5075355;28;19974;-51
2021/08/24 06:35:51;;;;;;;;;;;;;;;15.07;90.70;102819.31;5057330;28;19925;-51
2021/08/24 06:38:17;;;;;;;;;;;;;;;15.20;89.96;102821.25;5075208;28;19999;-46
2021/08/24 06:40:44;;;;;;;;;;;;;;;15.27;90.18;102811.16;5072543;28;20383;-52
2021/08/24 06:43:11;;;;;;;;;;;;;;;15.33;90.37;102810.81;5054624;28;19978;-53
2021/08/24 06:45:42;;;;;;;;;;;;;;;15.44;89.96;102812.03;5057536;28;19924;-53
2021/08/24 06:48:09;;;;;;;;;;;;;;;15.46;89.20;102816.31;5073863;28;19928;-52
2021/08/24 06:50:35;;;;;;;;;;;;;;;15.58;88.78;102820.06;5075237;28;20445;-53
2021/08/24 06:53:02;;;;;;;;;;;;;;;15.63;88.77;102818.03;5075012;28;19924;-51
2021/08/24 06:55:31;;;;;;;;;;;;;;;15.77;88.45;102814.59;5057220;28;19924;-49
2021/08/24 06:57:59;;;;;;;;;;;;;;;15.86;88.37;102808.81;5057326;28;19954;-54
2021/08/24 07:00:26;;;;;;;;;;;;;;;15.94;87.42;102813.69;5074921;28;20325;-52
2021/08/24 07:02:55;;;;;;;;;;;;;;;16.04;87.23;102814.88;5056927;28;19929;-53
2021/08/24 07:05:23;;;;;;;;;;;;;;;16.13;85.99;102821.47;5074672;28;20383;-53
2021/08/24 07:07:50;;;;;;;;;;;;;;;16.19;86.82;102825.56;5074468;28;19924;-54
2021/08/24 07:10:17;;;;;;;;;;;;;;;16.35;86.41;102825.53;5074584;28;19924;-52
2021/08/24 07:12:44;;;;;;;;;;;;;;;16.52;85.92;102827.19;5056938;28;20283;-52
2021/08/24 07:15:12;;;;;;;;;;;;;;;16.63;85.40;102824.72;5074846;28;19925;-52
2021/08/24 07:17:38;;;;;;;;;;;;;;;16.68;84.22;102835.94;5074646;28;19946;-52
2021/08/24 07:20:06;;;;;;;;;;;;;;;16.79;84.25;102824.69;5074503;28;19970;-52
2021/08/24 07:22:32;;;;;;;;;;;;;;;16.96;83.83;102828.13;5056764;28;19936;-52
2021/08/24 07:25:03;;;;;;;;;;;;;;;17.04;82.30;102832.06;5056805;28;19925;-53
2021/08/24 07:27:29;;;;;;;;;;;;;;;17.19;81.54;102822.28;5074272;28;19928;-44
2021/08/24 07:29:56;;;;;;;;;;;;;;;17.34;81.45;102819.59;5074122;28;20027;-46
2021/08/24 07:32:23;;;;;;;;;;;;;;;17.47;79.92;102819.69;5074280;28;19928;-48
2021/08/24 07:34:49;;;;;;;;;;;;;;;17.58;79.25;102822.50;5073958;28;19931;-48
2021/08/24 07:37:16;;;;;;;;;;;;;;;17.66;77.81;102827.34;5074050;28;19955;-46
2021/08/24 07:39:43;;;;;;;;;;;;;;;17.75;77.79;102821.41;5074127;28;19928;-45
2021/08/24 07:42:10;;;;;;;;;;;;;;;17.89;77.19;102832.03;5074052;28;19978;-44
2021/08/24 07:44:36;;;;;;;;;;;;;;;18.03;76.54;102831.16;5073834;28;19929;-45
2021/08/24 07:47:06;;;;;;;;;;;;;;;18.08;76.18;102823.72;5055828;28;20549;-44
2021/08/24 07:49:35;;;;;;;;;;;;;;;18.27;76.14;102826.97;5056414;28;19935;-48
2021/08/24 07:52:02;;;;;;;;;;;;;;;18.40;75.38;102828.69;5073105;28;19928;-47
2021/08/24 07:54:28;;;;;;;;;;;;;;;18.58;74.84;102823.09;5073159;28;20394;-48
2021/08/24 07:56:55;;;;;;;;;;;;;;;18.77;73.29;102821.84;5073311;28;19928;-51
2021/08/24 07:59:22;;;;;;;;;;;;;;;18.91;72.55;102821.78;5055411;28;19924;-44
2021/08/24 08:01:51;;;;;;;;;;;;;;;19.04;71.99;102819.94;5055880;28;19924;-48
2021/08/24 08:04:19;;;;;;;;;;;;;;;19.24;72.32;102820.38;5073812;28;19974;-49
2021/08/24 08:06:46;;;;;;;;;;;;;;;19.38;70.14;102820.22;5073188;28;20455;-48
2021/08/24 08:09:13;;;;;;;;;;;;;;;19.55;69.70;102818.13;5055770;28;20303;-49
2021/08/24 08:11:40;;;;;;;;;;;;;;;19.75;69.14;102828.22;5073523;28;19924;-46
2021/08/24 08:14:07;;;;;;;;;;;;;;;19.86;67.71;102827.47;5055550;28;19925;-49
2021/08/24 08:16:33;;;;;;;;;;;;;;;19.94;67.56;102826.91;5055547;28;19931;-46
2021/08/24 08:19:00;;;;;;;;;;;;;;;20.15;67.51;102827.13;5073380;28;19960;-47
2021/08/24 08:21:28;;;;;;;;;;;;;;;20.34;67.41;102831.94;5073106;28;19978;-50
2021/08/24 08:23:55;;;;;;;;;;;;;;;20.32;66.17;102828.53;5055727;28;19931;-49
2021/08/24 08:26:22;;;;;;;;;;;;;;;20.48;66.28;102838.03;5073325;28;20461;-49
2021/08/24 08:28:50;;;;;;;;;;;;;;;20.52;64.28;102831.47;5073311;28;19928;-49
2021/08/24 08:31:17;;;;;;;;;;;;;;;20.59;64.84;102830.91;5072792;28;19937;-50
2021/08/24 08:33:44;;;;;;;;;;;;;;;20.70;64.74;102832.78;5055545;28;20307;-48
2021/08/24 08:36:12;;;;;;;;;;;;;;;20.76;64.05;102829.66;5073237;28;19963;-47
2021/08/24 08:38:38;;;;;;;;;;;;;;;21.07;64.44;102831.75;5055189;28;19924;-50
2021/08/24 08:41:06;;;;;;;;;;;;;;;21.15;63.73;102823.13;5072959;28;19932;-50
2021/08/24 08:43:54;;;;;;;;;;;;;;;21.39;63.34;102825.63;5054936;28;19936;-47
2021/08/24 08:46:25;;;;;;;;;;;;;;;21.38;62.91;102826.63;5072505;28;19974;-51
2021/08/24 08:48:57;;;;;;;;;;;;;;;21.42;62.37;102830.75;5054625;28;19925;-48
2021/08/24 08:51:35;;;;;;;;;;;;;;;21.68;60.47;102836.69;5072728;28;19928;-49
2021/08/24 08:54:07;;;;;;;;;;;;;;;21.66;61.62;102830.59;5055147;28;19924;-46
2021/08/24 08:56:41;;;;;;;;;;;;;;;21.87;60.97;102835.16;5054939;28;20011;-45
2021/08/24 08:59:14;;;;;;;;;;;;;;;22.06;60.48;102835.38;5072542;28;19930;-46
2021/08/24 09:01:41;;;;;;;;;;;;;;;22.14;61.06;102834.72;5072853;28;19925;-48
2021/08/24 09:04:08;;;;;;;;;;;;;;;22.21;60.18;102827.00;5054571;28;19932;-46
2021/08/24 09:06:35;;;;;;;;;;;;;;;22.52;59.65;102827.97;5054678;28;19947;-45
2021/08/24 09:09:02;;;;;;;;;;;;;;;22.85;59.00;102827.88;5055247;28;20401;-44
2021/08/24 09:11:31;;;;;;;;;;;;;;;22.98;59.39;102833.06;5071846;28;19928;-48
2021/08/24 09:13:59;;;;;;;;;;;;;;;23.14;57.38;102833.44;5054712;28;20375;-49
2021/08/24 09:16:27;;;;;;;;;;;;;;;23.16;56.98;102836.81;5054800;28;19928;-49
2021/08/24 09:18:57;;;;;;;;;;;;;;;23.06;57.13;102835.91;5072508;28;19928;-47
2021/08/24 09:21:33;;;;;;;;;;;;;;;23.32;56.98;102836.31;5072529;28;19932;-49
2021/08/24 09:24:07;;;;;;;;;;;;;;;23.34;55.19;102841.53;5055064;28;19982;-49
2021/08/24 09:26:47;;;;;;;;;;;;;;;23.14;54.38;102838.78;5072313;28;19924;-48
2021/08/24 09:29:14;;;;;;;;;;;;;;;23.23;55.29;102837.13;5055093;28;19928;-51
2021/08/24 09:31:41;;;;;;;;;;;;;;;23.33;55.74;102827.28;5054694;28;19929;-46
2021/08/24 09:34:09;;;;;;;;;;;;;;;23.67;55.02;102837.69;5072324;28;19948;-49
2021/08/24 09:36:36;;;;;;;;;;;;;;;23.59;53.49;102840.22;5054697;28;19924;-46
2021/08/24 09:39:02;;;;;;;;;;;;;;;23.73;53.89;102844.34;5072317;28;19970;-46
2021/08/24 09:41:33;;;;;;;;;;;;;;;23.90;53.26;102840.13;5072355;28;19974;-48
2021/08/24 09:44:25;;;;;;;;;;;;;;;23.86;52.83;102841.38;5057181;28;19970;-46
2021/08/24 09:46:52;;;;;;;;;;;;;;;23.99;51.71;102841.16;5072001;28;19925;-45
2021/08/24 09:49:22;;;;;;;;;;;;;;;23.80;52.06;102840.09;5072311;28;19928;-52
2021/08/24 09:51:53;;;;;;;;;;;;;;;23.71;52.94;102841.78;5072280;28;19931;-47
2021/08/24 09:54:40;;;;;;;;;;;;;;;24.03;51.44;102843.41;5054668;28;19924;-47
2021/08/24 09:57:09;;;;;;;;;;;;;;;24.21;50.80;102827.41;5072310;28;19932;-44
2021/08/24 09:59:40;;;;;;;;;;;;;;;24.33;51.48;102827.28;5072046;28;19924;-45
2021/08/24 10:02:26;;;;;;;;;;;;;;;24.28;49.47;102825.00;5054795;28;20441;-46
2021/08/24 10:04:54;;;;;;;;;;;;;;;24.10;50.70;102820.34;5072340;28;19955;-44
2021/08/24 10:07:30;;;;;;;;;;;;;;;24.20;51.05;102817.66;5054350;28;20375;-49
2021/08/24 10:09:57;;;;;;;;;;;;;;;23.82;51.40;102819.31;5071237;28;19931;-48
2021/08/24 10:12:42;;;;;;;;;;;;;;;24.29;51.14;102813.25;5071337;28;19925;-48
2021/08/24 10:15:22;;;;;;;;;;;;;;;24.67;49.17;102806.13;5054298;28;19925;-51
2021/08/24 10:17:56;;;;;;;;;;;;;;;24.51;48.32;102809.38;5072098;28;20313;-46
2021/08/24 10:20:31;;;;;;;;;;;;;;;24.83;48.87;102807.34;5054525;28;19924;-52
2021/08/24 10:22:59;;;;;;;;;;;;;;;25.14;48.66;102810.63;5057342;28;19924;-50
2021/08/24 10:25:40;;;;;;;;;;;;;;;25.61;47.47;102807.00;5057963;28;19966;-50
2021/08/24 10:28:22;;;;;;;;;;;;;;;25.65;45.52;102805.69;5075299;28;19925;-50
2021/08/24 10:30:59;;;;;;;;;;;;;;;26.02;46.04;102807.41;5057738;28;19974;-48
2021/08/24 10:33:26;;;;;;;;;;;;;;;26.26;45.36;102804.06;5057579;28;19960;-48
2021/08/24 10:35:57;;;;;;;;;;;;;;;26.31;43.75;102800.88;5075253;28;19924;-51
2021/08/24 10:38:38;;;;;;;;;;;;;;;26.31;45.68;102800.88;5057562;28;19932;-47
2021/08/24 10:41:22;;;;;;;;;;;;;;;26.40;42.95;102799.94;5075166;28;19970;-48
2021/08/24 10:43:53;;;;;;;;;;;;;;;26.37;43.39;102796.69;5075135;28;19932;-47
2021/08/24 10:46:20;;;;;;;;;;;;;;;26.48;43.43;102802.69;5074933;28;19924;-50
2021/08/24 10:48:47;;;;;;;;;;;;;;;26.46;42.84;102804.72;5057481;28;20365;-49
2021/08/24 10:51:20;;;;;;;;;;;;;;;26.44;42.75;102803.19;5040474;28;19967;-51
2021/08/24 10:53:49;;;;;;;;;;;;;;;26.17;42.46;102798.78;5075043;28;19925;-50
2021/08/24 10:56:24;;;;;;;;;;;;;;;26.64;41.97;102798.38;5074935;28;19925;-49
2021/08/24 10:58:59;;;;;;;;;;;;;;;26.31;39.69;102801.75;5057326;28;19974;-49
2021/08/24 11:01:35;;;;;;;;;;;;;;;26.30;39.50;102800.03;5057334;28;19932;-52
2021/08/24 11:04:09;;;;;;;;;;;;;;;26.37;37.22;102792.19;5074707;28;19928;-47
2021/08/24 11:06:35;;;;;;;;;;;;;;;26.47;38.48;102798.28;5074791;28;19932;-51
2021/08/24 11:09:21;;;;;;;;;;;;;;;26.87;37.82;102789.78;5074553;28;20015;-50
2021/08/24 11:11:47;;;;;;;;;;;;;;;27.07;36.48;102784.97;5074601;28;19929;-49
2021/08/24 11:14:31;;;;;;;;;;;;;;;26.93;34.70;102784.59;5074579;28;19932;-51
2021/08/24 11:17:24;;;;;;;;;;;;;;;26.97;33.85;102785.13;5056980;28;19924;-51
2021/08/24 11:19:57;;;;;;;;;;;;;;;27.02;34.76;102780.06;5071708;28;19924;-50
2021/08/24 11:22:31;;;;;;;;;;;;;;;26.72;34.97;102773.34;5074413;28;19929;-50
2021/08/24 11:24:58;;;;;;;;;;;;;;;26.90;34.82;102771.44;5056815;28;20367;-47
2021/08/24 11:27:44;;;;;;;;;;;;;;;27.23;34.09;102776.06;5074277;28;19972;-51
2021/08/24 11:30:23;;;;;;;;;;;;;;;27.11;33.59;102765.56;5056435;28;19974;-49
2021/08/24 11:32:53;;;;;;;;;;;;;;;27.58;34.66;102771.47;5073450;28;20880;-50
2021/08/24 11:35:22;;;;;;;;;;;;;;;27.87;33.11;102770.13;5074157;28;20395;-48
2021/08/24 11:37:53;;;;;;;;;;;;;;;28.01;32.64;102757.84;5056399;28;19928;-51
2021/08/24 11:40:23;;;;;;;;;;;;;;;28.04;32.88;102755.63;5074111;28;19924;-51
2021/08/24 11:42:54;;;;;;;;;;;;;;;28.22;32.54;102762.69;5056187;28;19924;-49
2021/08/24 11:45:21;;;;;;;;;;;;;;;28.23;32.53;102757.13;5056181;28;20051;-51
2021/08/24 11:47:56;;;;;;;;;;;;;;;28.26;31.31;102754.06;5073673;28;20041;-46
2021/08/24 11:50:28;;;;;;;;;;;;;;;27.96;31.96;102758.28;5073706;28;20353;-48
2021/08/24 11:52:56;;;;;;;;;;;;;;;28.08;31.47;102746.16;5055985;28;19929;-49
2021/08/24 11:55:24;;;;;;;;;;;;;;;27.93;31.41;102739.72;5055893;28;19970;-45
2021/08/24 11:58:03;;;;;;;;;;;;;;;28.14;31.03;102734.66;5055949;28;19940;-48
2021/08/24 12:00:29;;;;;;;;;;;;;;;28.02;31.14;102743.28;5055716;28;19966;-45
2021/08/24 12:02:57;;;;;;;;;;;;;;;27.99;31.10;102731.78;5055805;28;20031;-49
2021/08/24 12:05:25;;;;;;;;;;;;;;;28.29;31.57;102728.53;5055733;28;20323;-47
2021/08/24 12:07:59;;;;;;;;;;;;;;;28.34;30.73;102731.56;5073087;28;19928;-50
2021/08/24 12:10:28;;;;;;;;;;;;;;;28.19;31.98;102727.88;5038813;28;19932;-51
2021/08/24 12:13:04;;;;;;;;;;;;;;;28.11;32.13;102721.47;5039095;28;20333;-49
2021/08/24 12:15:34;;;;;;;;;;;;;;;28.12;32.29;102714.22;5055838;28;19931;-48
2021/08/24 12:18:03;;;;;;;;;;;;;;;28.54;31.67;102717.63;5073642;28;20368;-51
2021/08/24 12:20:32;;;;;;;;;;;;;;;28.60;31.75;102716.94;5055638;28;19963;-48
2021/08/24 12:23:00;;;;;;;;;;;;;;;27.99;31.59;102714.69;5073483;28;19974;-51
2021/08/24 12:25:32;;;;;;;;;;;;;;;27.93;31.63;102721.63;5073079;28;19928;-49
2021/08/24 12:27:59;;;;;;;;;;;;;;;27.85;31.43;102724.34;5055326;28;20367;-47
2021/08/24 12:30:27;;;;;;;;;;;;;;;28.25;31.74;102724.47;5073190;28;19929;-52
2021/08/24 12:32:54;;;;;;;;;;;;;;;28.40;31.55;102724.63;5069442;28;19958;-51
2021/08/24 12:35:41;;;;;;;;;;;;;;;28.37;30.99;102716.84;5069683;28;19931;-51
2021/08/24 12:38:09;;;;;;;;;;;;;;;28.89;30.75;102732.59;5051976;28;20473;-51
2021/08/24 12:40:50;;;;;;;;;;;;;;;29.05;31.22;102731.63;5068257;28;19925;-50
2021/08/24 12:43:35;;;;;;;;;;;;;;;28.71;30.20;102729.28;5069830;28;19928;-51
2021/08/24 12:46:17;;;;;;;;;;;;;;;28.72;30.73;102730.97;5074179;28;20360;-51
2021/08/24 12:49:02;;;;;;;;;;;;;;;28.74;30.96;102734.34;5062207;28;19931;-52